sensor_id;sensor_type;location;lat;lon;timestamp;pressure;altitude;pressure_sealevel;temperature
68939;BMP180;59064;45.294;11.816;2023-08-20T00:00:23;101638.40;;;24.90
68939;BMP180;59064;45.294;11.816;2023-08-20T00:02:51;101642.40;;;24.90
68939;BMP180;59064;45.294;11.816;2023-08-20T00:05:19;101646.00;;;24.90
68939;BMP180;59064;45.294;11.816;2023-08-20T00:07:44;101644.60;;;24.90
68939;BMP180;59064;45.294;11.816;2023-08-20T00:10:10;101641.40;;;24.90
68939;BMP180;59064;45.294;11.816;2023-08-20T00:12:36;101641.60;;;24.90
68939;BMP180;59064;45.294;11.816;2023-08-20T00:15:03;101642.40;;;24.90
68939;BMP180;59064;45.294;11.816;2023-08-20T00:17:38;101641.60;;;24.90
68939;BMP180;59064;45.294;11.816;2023-08-20T00:20:06;101636.60;;;25.00
68939;BMP180;59064;45.294;11.816;2023-08-20T00:22:42;101643.20;;;25.00
68939;BMP180;59064;45.294;11.816;2023-08-20T00:25:11;101640.20;;;25.00
68939;BMP180;59064;45.294;11.816;2023-08-20T00:27:41;101638.80;;;25.00
68939;BMP180;59064;45.294;11.816;2023-08-20T00:30:08;101638.40;;;25.08
68939;BMP180;59064;45.294;11.816;2023-08-20T00:32:35;101640.20;;;25.10
68939;BMP180;59064;45.294;11.816;2023-08-20T00:35:02;101642.40;;;25.10
68939;BMP180;59064;45.294;11.816;2023-08-20T00:37:32;101644.00;;;25.12
68939;BMP180;59064;45.294;11.816;2023-08-20T00:39:58;101641.80;;;25.18
68939;BMP180;59064;45.294;11.816;2023-08-20T00:42:25;101642.60;;;25.20
68939;BMP180;59064;45.294;11.816;2023-08-20T00:44:53;101644.60;;;25.20
68939;BMP180;59064;45.294;11.816;2023-08-20T00:47:19;101646.40;;;25.20
68939;BMP180;59064;45.294;11.816;2023-08-20T00:49:47;101648.80;;;25.20
68939;BMP180;59064;45.294;11.816;2023-08-20T00:52:15;101643.40;;;25.20
68939;BMP180;59064;45.294;11.816;2023-08-20T00:54:41;101646.40;;;25.12
68939;BMP180;59064;45.294;11.816;2023-08-20T00:57:09;101652.40;;;25.10
68939;BMP180;59064;45.294;11.816;2023-08-20T00:59:35;101663.00;;;25.04
68939;BMP180;59064;45.294;11.816;2023-08-20T01:02:01;101651.20;;;25.00
68939;BMP180;59064;45.294;11.816;2023-08-20T01:04:29;101662.40;;;24.90
68939;BMP180;59064;45.294;11.816;2023-08-20T01:10:08;101652.20;;;24.70
68939;BMP180;59064;45.294;11.816;2023-08-20T01:12:36;101661.40;;;24.60
68939;BMP180;59064;45.294;11.816;2023-08-20T01:15:02;101668.60;;;24.60
68939;BMP180;59064;45.294;11.816;2023-08-20T01:17:27;101672.00;;;24.50
68939;BMP180;59064;45.294;11.816;2023-08-20T01:19:53;101667.80;;;24.50
68939;BMP180;59064;45.294;11.816;2023-08-20T01:25:43;101668.20;;;24.30
68939;BMP180;59064;45.294;11.816;2023-08-20T01:30:49;101671.20;;;24.20
68939;BMP180;59064;45.294;11.816;2023-08-20T01:33:15;101669.80;;;24.20
68939;BMP180;59064;45.294;11.816;2023-08-20T01:35:41;101670.20;;;24.20
68939;BMP180;59064;45.294;11.816;2023-08-20T01:38:07;101666.40;;;24.20
68939;BMP180;59064;45.294;11.816;2023-08-20T01:40:33;101665.20;;;24.10
68939;BMP180;59064;45.294;11.816;2023-08-20T01:42:59;101666.40;;;24.10
68939;BMP180;59064;45.294;11.816;2023-08-20T01:45:25;101664.80;;;24.00
68939;BMP180;59064;45.294;11.816;2023-08-20T01:47:52;101666.40;;;24.00
68939;BMP180;59064;45.294;11.816;2023-08-20T01:50:18;101662.20;;;23.98
68939;BMP180;59064;45.294;11.816;2023-08-20T01:52:44;101665.40;;;24.00
68939;BMP180;59064;45.294;11.816;2023-08-20T01:55:15;101670.00;;;24.00
68939;BMP180;59064;45.294;11.816;2023-08-20T01:57:40;101667.20;;;24.10
68939;BMP180;59064;45.294;11.816;2023-08-20T02:00:06;101666.00;;;24.10
68939;BMP180;59064;45.294;11.816;2023-08-20T02:02:32;101665.20;;;24.14
68939;BMP180;59064;45.294;11.816;2023-08-20T02:05:00;101660.80;;;24.20
68939;BMP180;59064;45.294;11.816;2023-08-20T02:07:25;101661.60;;;24.20
68939;BMP180;59064;45.294;11.816;2023-08-20T02:09:51;101665.80;;;24.20
68939;BMP180;59064;45.294;11.816;2023-08-20T02:12:17;101660.40;;;24.20
68939;BMP180;59064;45.294;11.816;2023-08-20T02:14:43;101664.00;;;24.20
68939;BMP180;59064;45.294;11.816;2023-08-20T02:17:09;101661.60;;;24.22
68939;BMP180;59064;45.294;11.816;2023-08-20T02:19:34;101662.00;;;24.20
68939;BMP180;59064;45.294;11.816;2023-08-20T02:22:00;101651.20;;;24.20
68939;BMP180;59064;45.294;11.816;2023-08-20T02:24:26;101658.20;;;24.20
68939;BMP180;59064;45.294;11.816;2023-08-20T02:26:51;101659.80;;;24.24
68939;BMP180;59064;45.294;11.816;2023-08-20T02:29:17;101660.20;;;24.20
68939;BMP180;59064;45.294;11.816;2023-08-20T02:31:42;101657.60;;;24.20
68939;BMP180;59064;45.294;11.816;2023-08-20T02:34:08;101660.40;;;24.20
68939;BMP180;59064;45.294;11.816;2023-08-20T02:36:34;101656.40;;;24.20
68939;BMP180;59064;45.294;11.816;2023-08-20T02:38:59;101656.60;;;24.20
68939;BMP180;59064;45.294;11.816;2023-08-20T02:41:25;101655.00;;;24.22
68939;BMP180;59064;45.294;11.816;2023-08-20T02:43:50;101656.00;;;24.26
68939;BMP180;59064;45.294;11.816;2023-08-20T02:46:16;101658.20;;;24.24
68939;BMP180;59064;45.294;11.816;2023-08-20T02:48:42;101664.00;;;24.30
68939;BMP180;59064;45.294;11.816;2023-08-20T02:51:07;101664.40;;;24.32
68939;BMP180;59064;45.294;11.816;2023-08-20T02:53:33;101670.20;;;24.40
68939;BMP180;59064;45.294;11.816;2023-08-20T02:55:58;101665.60;;;24.40
68939;BMP180;59064;45.294;11.816;2023-08-20T02:58:24;101659.00;;;24.40
68939;BMP180;59064;45.294;11.816;2023-08-20T03:00:50;101654.20;;;24.40
68939;BMP180;59064;45.294;11.816;2023-08-20T03:03:15;101656.00;;;24.40
68939;BMP180;59064;45.294;11.816;2023-08-20T03:05:42;101649.80;;;24.30
68939;BMP180;59064;45.294;11.816;2023-08-20T03:08:07;101650.00;;;24.32
68939;BMP180;59064;45.294;11.816;2023-08-20T03:10:34;101649.00;;;24.32
68939;BMP180;59064;45.294;11.816;2023-08-20T03:13:03;101650.80;;;24.30
68939;BMP180;59064;45.294;11.816;2023-08-20T03:15:29;101651.80;;;24.30
68939;BMP180;59064;45.294;11.816;2023-08-20T03:17:55;101650.20;;;24.30
68939;BMP180;59064;45.294;11.816;2023-08-20T03:20:21;101656.80;;;24.30
68939;BMP180;59064;45.294;11.816;2023-08-20T03:22:47;101652.40;;;24.20
68939;BMP180;59064;45.294;11.816;2023-08-20T03:25:12;101656.40;;;24.20
68939;BMP180;59064;45.294;11.816;2023-08-20T03:27:38;101657.20;;;24.10
68939;BMP180;59064;45.294;11.816;2023-08-20T03:30:04;101659.40;;;24.10
68939;BMP180;59064;45.294;11.816;2023-08-20T03:32:31;101657.60;;;24.08
68939;BMP180;59064;45.294;11.816;2023-08-20T03:34:57;101659.60;;;24.00
68939;BMP180;59064;45.294;11.816;2023-08-20T03:37:25;101658.60;;;24.00
68939;BMP180;59064;45.294;11.816;2023-08-20T03:39:51;101660.20;;;23.90
68939;BMP180;59064;45.294;11.816;2023-08-20T03:42:17;101658.60;;;23.90
68939;BMP180;59064;45.294;11.816;2023-08-20T03:44:43;101659.40;;;23.90
68939;BMP180;59064;45.294;11.816;2023-08-20T03:47:09;101657.80;;;23.90
68939;BMP180;59064;45.294;11.816;2023-08-20T03:49:34;101653.60;;;23.90
68939;BMP180;59064;45.294;11.816;2023-08-20T03:52:00;101657.00;;;23.90
68939;BMP180;59064;45.294;11.816;2023-08-20T03:54:28;101651.20;;;23.88
68939;BMP180;59064;45.294;11.816;2023-08-20T03:56:55;101652.80;;;23.80
68939;BMP180;59064;45.294;11.816;2023-08-20T03:59:21;101655.80;;;23.80
68939;BMP180;59064;45.294;11.816;2023-08-20T04:01:46;101656.20;;;23.80
68939;BMP180;59064;45.294;11.816;2023-08-20T04:04:12;101661.60;;;23.80
68939;BMP180;59064;45.294;11.816;2023-08-20T04:06:37;101662.80;;;23.80
68939;BMP180;59064;45.294;11.816;2023-08-20T04:09:03;101660.00;;;23.70
68939;BMP180;59064;45.294;11.816;2023-08-20T04:11:29;101660.40;;;23.70
68939;BMP180;59064;45.294;11.816;2023-08-20T04:13:54;101664.20;;;23.70
68939;BMP180;59064;45.294;11.816;2023-08-20T04:16:21;101666.00;;;23.70
68939;BMP180;59064;45.294;11.816;2023-08-20T04:18:46;101667.80;;;23.70
68939;BMP180;59064;45.294;11.816;2023-08-20T04:21:13;101672.00;;;23.70
68939;BMP180;59064;45.294;11.816;2023-08-20T04:23:39;101670.80;;;23.60
68939;BMP180;59064;45.294;11.816;2023-08-20T04:26:04;101672.20;;;23.60
68939;BMP180;59064;45.294;11.816;2023-08-20T04:28:30;101669.20;;;23.60
68939;BMP180;59064;45.294;11.816;2023-08-20T04:30:55;101666.80;;;23.60
68939;BMP180;59064;45.294;11.816;2023-08-20T04:33:21;101669.60;;;23.60
68939;BMP180;59064;45.294;11.816;2023-08-20T04:35:49;101672.60;;;23.60
68939;BMP180;59064;45.294;11.816;2023-08-20T04:38:16;101673.80;;;23.62
68939;BMP180;59064;45.294;11.816;2023-08-20T04:40:41;101672.60;;;23.62
68939;BMP180;59064;45.294;11.816;2023-08-20T04:43:07;101674.00;;;23.70
68939;BMP180;59064;45.294;11.816;2023-08-20T04:45:32;101674.00;;;23.70
68939;BMP180;59064;45.294;11.816;2023-08-20T04:47:59;101675.20;;;23.70
68939;BMP180;59064;45.294;11.816;2023-08-20T04:50:25;101672.80;;;23.70
68939;BMP180;59064;45.294;11.816;2023-08-20T04:52:51;101677.00;;;23.80
68939;BMP180;59064;45.294;11.816;2023-08-20T04:55:21;101679.60;;;23.80
68939;BMP180;59064;45.294;11.816;2023-08-20T04:57:47;101674.20;;;23.80
68939;BMP180;59064;45.294;11.816;2023-08-20T05:00:13;101677.40;;;23.90
68939;BMP180;59064;45.294;11.816;2023-08-20T05:02:41;101678.60;;;23.92
68939;BMP180;59064;45.294;11.816;2023-08-20T05:05:06;101682.40;;;24.00
68939;BMP180;59064;45.294;11.816;2023-08-20T05:07:32;101681.80;;;24.10
68939;BMP180;59064;45.294;11.816;2023-08-20T05:09:58;101675.80;;;24.18
68939;BMP180;59064;45.294;11.816;2023-08-20T05:12:23;101676.20;;;24.22
68939;BMP180;59064;45.294;11.816;2023-08-20T05:14:49;101682.20;;;24.32
68939;BMP180;59064;45.294;11.816;2023-08-20T05:17:14;101681.40;;;24.40
68939;BMP180;59064;45.294;11.816;2023-08-20T05:19:40;101683.80;;;24.50
68939;BMP180;59064;45.294;11.816;2023-08-20T05:22:05;101681.00;;;24.60
68939;BMP180;59064;45.294;11.816;2023-08-20T05:24:31;101683.20;;;24.70
68939;BMP180;59064;45.294;11.816;2023-08-20T05:27:21;101686.40;;;24.80
68939;BMP180;59064;45.294;11.816;2023-08-20T05:29:47;101685.00;;;24.90
68939;BMP180;59064;45.294;11.816;2023-08-20T05:32:12;101688.00;;;25.00
68939;BMP180;59064;45.294;11.816;2023-08-20T05:34:40;101684.40;;;25.10
68939;BMP180;59064;45.294;11.816;2023-08-20T05:37:05;101685.80;;;25.16
68939;BMP180;59064;45.294;11.816;2023-08-20T05:39:41;101688.20;;;25.20
68939;BMP180;59064;45.294;11.816;2023-08-20T05:42:07;101688.60;;;25.30
68939;BMP180;59064;45.294;11.816;2023-08-20T05:44:32;101685.40;;;25.40
68939;BMP180;59064;45.294;11.816;2023-08-20T05:46:58;101688.00;;;25.50
68939;BMP180;59064;45.294;11.816;2023-08-20T05:49:24;101691.60;;;25.60
68939;BMP180;59064;45.294;11.816;2023-08-20T05:51:49;101694.40;;;25.60
68939;BMP180;59064;45.294;11.816;2023-08-20T05:54:15;101693.40;;;25.70
68939;BMP180;59064;45.294;11.816;2023-08-20T05:56:43;101695.40;;;25.80
68939;BMP180;59064;45.294;11.816;2023-08-20T05:59:09;101695.80;;;25.90
68939;BMP180;59064;45.294;11.816;2023-08-20T06:01:34;101701.60;;;25.98
68939;BMP180;59064;45.294;11.816;2023-08-20T06:04:00;101708.20;;;26.00
68939;BMP180;59064;45.294;11.816;2023-08-20T06:06:27;101711.80;;;26.10
68939;BMP180;59064;45.294;11.816;2023-08-20T06:08:52;101710.00;;;26.20
68939;BMP180;59064;45.294;11.816;2023-08-20T06:11:20;101711.00;;;26.20
68939;BMP180;59064;45.294;11.816;2023-08-20T06:13:46;101714.80;;;26.30
68939;BMP180;59064;45.294;11.816;2023-08-20T06:16:12;101717.20;;;26.40
68939;BMP180;59064;45.294;11.816;2023-08-20T06:18:37;101717.20;;;26.50
68939;BMP180;59064;45.294;11.816;2023-08-20T06:21:03;101720.00;;;26.60
68939;BMP180;59064;45.294;11.816;2023-08-20T06:23:29;101722.40;;;26.60
68939;BMP180;59064;45.294;11.816;2023-08-20T06:25:54;101727.60;;;26.70
68939;BMP180;59064;45.294;11.816;2023-08-20T06:28:21;101729.20;;;26.70
68939;BMP180;59064;45.294;11.816;2023-08-20T06:30:46;101725.20;;;26.80
68939;BMP180;59064;45.294;11.816;2023-08-20T06:33:12;101729.80;;;26.80
68939;BMP180;59064;45.294;11.816;2023-08-20T06:35:39;101731.00;;;26.90
68939;BMP180;59064;45.294;11.816;2023-08-20T06:38:04;101727.00;;;27.06
68939;BMP180;59064;45.294;11.816;2023-08-20T06:40:30;101729.80;;;27.16
68939;BMP180;59064;45.294;11.816;2023-08-20T06:42:56;101727.40;;;27.20
68939;BMP180;59064;45.294;11.816;2023-08-20T06:45:22;101726.00;;;27.30
68939;BMP180;59064;45.294;11.816;2023-08-20T06:47:47;101730.00;;;27.36
68939;BMP180;59064;45.294;11.816;2023-08-20T06:50:13;101725.80;;;27.50
68939;BMP180;59064;45.294;11.816;2023-08-20T06:52:39;101725.40;;;27.50
68939;BMP180;59064;45.294;11.816;2023-08-20T06:55:05;101728.20;;;27.60
68939;BMP180;59064;45.294;11.816;2023-08-20T06:57:30;101727.40;;;27.70
68939;BMP180;59064;45.294;11.816;2023-08-20T06:59:56;101724.60;;;27.80
68939;BMP180;59064;45.294;11.816;2023-08-20T07:02:22;101724.20;;;27.80
68939;BMP180;59064;45.294;11.816;2023-08-20T07:04:48;101727.80;;;27.90
68939;BMP180;59064;45.294;11.816;2023-08-20T07:07:13;101729.20;;;27.94
68939;BMP180;59064;45.294;11.816;2023-08-20T07:09:40;101731.00;;;28.00
68939;BMP180;59064;45.294;11.816;2023-08-20T07:12:06;101735.00;;;28.10
68939;BMP180;59064;45.294;11.816;2023-08-20T07:14:32;101735.00;;;28.20
68939;BMP180;59064;45.294;11.816;2023-08-20T07:16:59;101737.40;;;28.22
68939;BMP180;59064;45.294;11.816;2023-08-20T07:19:25;101738.20;;;28.30
68939;BMP180;59064;45.294;11.816;2023-08-20T07:21:50;101743.40;;;28.40
68939;BMP180;59064;45.294;11.816;2023-08-20T07:24:16;101746.00;;;28.50
68939;BMP180;59064;45.294;11.816;2023-08-20T07:26:42;101754.00;;;28.60
68939;BMP180;59064;45.294;11.816;2023-08-20T07:29:07;101750.80;;;28.78
68939;BMP180;59064;45.294;11.816;2023-08-20T07:31:33;101749.00;;;28.80
68939;BMP180;59064;45.294;11.816;2023-08-20T07:34:01;101749.00;;;29.00
68939;BMP180;59064;45.294;11.816;2023-08-20T07:36:28;101745.00;;;29.20
68939;BMP180;59064;45.294;11.816;2023-08-20T07:38:54;101746.20;;;29.30
68939;BMP180;59064;45.294;11.816;2023-08-20T07:41:21;101748.00;;;29.38
68939;BMP180;59064;45.294;11.816;2023-08-20T07:43:48;101753.40;;;29.44
68939;BMP180;59064;45.294;11.816;2023-08-20T07:46:15;101755.60;;;29.60
68939;BMP180;59064;45.294;11.816;2023-08-20T07:48:41;101754.00;;;29.60
68939;BMP180;59064;45.294;11.816;2023-08-20T07:51:08;101753.20;;;29.60
68939;BMP180;59064;45.294;11.816;2023-08-20T07:53:35;101759.80;;;29.70
68939;BMP180;59064;45.294;11.816;2023-08-20T07:56:01;101763.40;;;29.82
68939;BMP180;59064;45.294;11.816;2023-08-20T07:58:27;101767.60;;;29.90
68939;BMP180;59064;45.294;11.816;2023-08-20T08:00:54;101767.60;;;30.00
68939;BMP180;59064;45.294;11.816;2023-08-20T08:03:20;101766.40;;;30.10
68939;BMP180;59064;45.294;11.816;2023-08-20T08:05:52;101765.60;;;30.40
68939;BMP180;59064;45.294;11.816;2023-08-20T08:08:20;101767.80;;;30.60
68939;BMP180;59064;45.294;11.816;2023-08-20T08:10:46;101769.20;;;30.80
68939;BMP180;59064;45.294;11.816;2023-08-20T08:13:22;101772.40;;;30.96
68939;BMP180;59064;45.294;11.816;2023-08-20T08:15:48;101770.20;;;31.20
68939;BMP180;59064;45.294;11.816;2023-08-20T08:18:14;101770.80;;;31.20
68939;BMP180;59064;45.294;11.816;2023-08-20T08:20:40;101774.80;;;31.12
68939;BMP180;59064;45.294;11.816;2023-08-20T08:23:06;101772.60;;;31.20
68939;BMP180;59064;45.294;11.816;2023-08-20T08:25:31;101764.00;;;31.20
68939;BMP180;59064;45.294;11.816;2023-08-20T08:27:57;101770.20;;;31.30
68939;BMP180;59064;45.294;11.816;2023-08-20T08:30:23;101768.80;;;31.60
68939;BMP180;59064;45.294;11.816;2023-08-20T08:32:49;101766.80;;;31.64
68939;BMP180;59064;45.294;11.816;2023-08-20T08:35:14;101769.00;;;31.70
68939;BMP180;59064;45.294;11.816;2023-08-20T08:37:40;101771.80;;;31.90
68939;BMP180;59064;45.294;11.816;2023-08-20T08:40:07;101772.60;;;32.00
68939;BMP180;59064;45.294;11.816;2023-08-20T08:42:33;101772.20;;;32.20
68939;BMP180;59064;45.294;11.816;2023-08-20T08:45:00;101775.60;;;32.36
68939;BMP180;59064;45.294;11.816;2023-08-20T08:47:26;101775.60;;;32.62
68939;BMP180;59064;45.294;11.816;2023-08-20T08:49:52;101773.00;;;33.00
68939;BMP180;59064;45.294;11.816;2023-08-20T08:52:21;101774.00;;;33.10
68939;BMP180;59064;45.294;11.816;2023-08-20T08:54:47;101769.60;;;33.20
68939;BMP180;59064;45.294;11.816;2023-08-20T08:57:15;101763.80;;;33.20
68939;BMP180;59064;45.294;11.816;2023-08-20T08:59:42;101766.20;;;33.10
68939;BMP180;59064;45.294;11.816;2023-08-20T09:02:10;101771.00;;;32.90
68939;BMP180;59064;45.294;11.816;2023-08-20T09:04:42;101762.40;;;33.00
68939;BMP180;59064;45.294;11.816;2023-08-20T09:07:15;101761.00;;;33.40
68939;BMP180;59064;45.294;11.816;2023-08-20T09:09:43;101761.20;;;33.50
68939;BMP180;59064;45.294;11.816;2023-08-20T09:12:21;101757.60;;;33.56
68939;BMP180;59064;45.294;11.816;2023-08-20T09:14:51;101754.60;;;33.48
68939;BMP180;59064;45.294;11.816;2023-08-20T09:17:18;101761.20;;;33.60
68939;BMP180;59064;45.294;11.816;2023-08-20T09:19:46;101756.60;;;33.70
68939;BMP180;59064;45.294;11.816;2023-08-20T09:22:13;101759.00;;;33.60
68939;BMP180;59064;45.294;11.816;2023-08-20T09:27:07;101761.00;;;33.40
68939;BMP180;59064;45.294;11.816;2023-08-20T09:29:54;101761.40;;;33.30
68939;BMP180;59064;45.294;11.816;2023-08-20T09:32:23;101758.40;;;33.66
68939;BMP180;59064;45.294;11.816;2023-08-20T09:34:51;101762.20;;;33.70
68939;BMP180;59064;45.294;11.816;2023-08-20T09:37:19;101766.40;;;33.92
68939;BMP180;59064;45.294;11.816;2023-08-20T09:39:45;101758.20;;;34.10
68939;BMP180;59064;45.294;11.816;2023-08-20T09:42:11;101759.40;;;34.10
68939;BMP180;59064;45.294;11.816;2023-08-20T09:44:43;101759.60;;;34.34
68939;BMP180;59064;45.294;11.816;2023-08-20T09:47:12;101759.80;;;34.54
68939;BMP180;59064;45.294;11.816;2023-08-20T09:49:44;101760.00;;;34.78
68939;BMP180;59064;45.294;11.816;2023-08-20T09:52:15;101754.60;;;34.80
68939;BMP180;59064;45.294;11.816;2023-08-20T09:55:04;101752.60;;;34.80
68939;BMP180;59064;45.294;11.816;2023-08-20T09:57:36;101763.00;;;34.60
68939;BMP180;59064;45.294;11.816;2023-08-20T10:00:06;101760.20;;;34.40
68939;BMP180;59064;45.294;11.816;2023-08-20T10:02:35;101761.20;;;34.38
68939;BMP180;59064;45.294;11.816;2023-08-20T10:05:04;101765.20;;;34.74
68939;BMP180;59064;45.294;11.816;2023-08-20T10:07:30;101758.20;;;34.90
68939;BMP180;59064;45.294;11.816;2023-08-20T10:09:58;101752.00;;;34.80
68939;BMP180;59064;45.294;11.816;2023-08-20T10:12:27;101757.20;;;34.70
68939;BMP180;59064;45.294;11.816;2023-08-20T10:14:57;101752.40;;;35.00
68939;BMP180;59064;45.294;11.816;2023-08-20T10:17:23;101757.40;;;35.46
68939;BMP180;59064;45.294;11.816;2023-08-20T10:19:52;101755.60;;;35.70
68939;BMP180;59064;45.294;11.816;2023-08-20T10:22:19;101757.80;;;35.80
68939;BMP180;59064;45.294;11.816;2023-08-20T10:24:52;101757.00;;;36.02
68939;BMP180;59064;45.294;11.816;2023-08-20T10:27:31;101757.60;;;36.30
68939;BMP180;59064;45.294;11.816;2023-08-20T10:29:59;101761.60;;;36.30
68939;BMP180;59064;45.294;11.816;2023-08-20T10:32:44;101763.00;;;36.20
68939;BMP180;59064;45.294;11.816;2023-08-20T10:35:11;101762.80;;;36.14
68939;BMP180;59064;45.294;11.816;2023-08-20T10:37:37;101761.60;;;36.20
68939;BMP180;59064;45.294;11.816;2023-08-20T10:40:07;101766.20;;;36.30
68939;BMP180;59064;45.294;11.816;2023-08-20T10:42:41;101761.20;;;36.10
68939;BMP180;59064;45.294;11.816;2023-08-20T10:45:09;101751.60;;;35.90
68939;BMP180;59064;45.294;11.816;2023-08-20T10:50:15;101757.80;;;35.30
68939;BMP180;59064;45.294;11.816;2023-08-20T10:52:42;101762.60;;;35.42
68939;BMP180;59064;45.294;11.816;2023-08-20T10:55:13;101763.60;;;35.60
68939;BMP180;59064;45.294;11.816;2023-08-20T10:57:41;101762.20;;;35.60
68939;BMP180;59064;45.294;11.816;2023-08-20T11:00:08;101765.20;;;35.60
68939;BMP180;59064;45.294;11.816;2023-08-20T11:02:41;101763.80;;;35.60
68939;BMP180;59064;45.294;11.816;2023-08-20T11:05:21;101763.80;;;35.80
68939;BMP180;59064;45.294;11.816;2023-08-20T11:07:48;101762.80;;;36.00
68939;BMP180;59064;45.294;11.816;2023-08-20T11:10:16;101758.40;;;36.38
68939;BMP180;59064;45.294;11.816;2023-08-20T11:12:45;101751.40;;;36.50
68939;BMP180;59064;45.294;11.816;2023-08-20T11:15:11;101751.80;;;36.38
68939;BMP180;59064;45.294;11.816;2023-08-20T11:17:46;101754.60;;;36.58
68939;BMP180;59064;45.294;11.816;2023-08-20T11:20:14;101749.80;;;36.96
68939;BMP180;59064;45.294;11.816;2023-08-20T11:22:40;101750.20;;;37.00
68939;BMP180;59064;45.294;11.816;2023-08-20T11:25:11;101748.80;;;37.20
68939;BMP180;59064;45.294;11.816;2023-08-20T11:27:42;101740.60;;;37.00
68939;BMP180;59064;45.294;11.816;2023-08-20T11:30:10;101738.80;;;36.52
68939;BMP180;59064;45.294;11.816;2023-08-20T11:32:38;101745.00;;;36.40
68939;BMP180;59064;45.294;11.816;2023-08-20T11:35:06;101742.00;;;36.60
68939;BMP180;59064;45.294;11.816;2023-08-20T11:37:33;101740.60;;;36.92
68939;BMP180;59064;45.294;11.816;2023-08-20T11:39:59;101738.20;;;37.40
68939;BMP180;59064;45.294;11.816;2023-08-20T11:42:24;101730.60;;;37.60
68939;BMP180;59064;45.294;11.816;2023-08-20T11:44:51;101734.20;;;37.02
68939;BMP180;59064;45.294;11.816;2023-08-20T11:47:20;101737.20;;;36.80
68939;BMP180;59064;45.294;11.816;2023-08-20T11:49:46;101734.00;;;37.10
68939;BMP180;59064;45.294;11.816;2023-08-20T11:52:11;101731.00;;;37.22
68939;BMP180;59064;45.294;11.816;2023-08-20T11:54:39;101729.60;;;37.66
68939;BMP180;59064;45.294;11.816;2023-08-20T11:57:06;101728.00;;;38.00
68939;BMP180;59064;45.294;11.816;2023-08-20T11:59:33;101730.80;;;37.90
68939;BMP180;59064;45.294;11.816;2023-08-20T12:02:01;101731.20;;;37.90
68939;BMP180;59064;45.294;11.816;2023-08-20T12:04:30;101724.60;;;37.90
68939;BMP180;59064;45.294;11.816;2023-08-20T12:07:09;101726.60;;;38.18
68939;BMP180;59064;45.294;11.816;2023-08-20T12:09:35;101727.20;;;38.68
68939;BMP180;59064;45.294;11.816;2023-08-20T12:12:02;101725.80;;;38.96
68939;BMP180;59064;45.294;11.816;2023-08-20T12:14:28;101722.80;;;38.80
68939;BMP180;59064;45.294;11.816;2023-08-20T12:16:54;101719.60;;;38.40
68939;BMP180;59064;45.294;11.816;2023-08-20T12:19:21;101718.00;;;38.56
68939;BMP180;59064;45.294;11.816;2023-08-20T12:21:46;101718.00;;;38.70
68939;BMP180;59064;45.294;11.816;2023-08-20T12:24:12;101712.80;;;38.80
68939;BMP180;59064;45.294;11.816;2023-08-20T12:26:39;101716.80;;;38.70
68939;BMP180;59064;45.294;11.816;2023-08-20T12:29:05;101710.80;;;38.80
68939;BMP180;59064;45.294;11.816;2023-08-20T12:31:32;101709.20;;;38.90
68939;BMP180;59064;45.294;11.816;2023-08-20T12:33:59;101710.00;;;38.82
68939;BMP180;59064;45.294;11.816;2023-08-20T12:36:25;101717.40;;;38.40
68939;BMP180;59064;45.294;11.816;2023-08-20T12:38:50;101717.00;;;38.54
68939;BMP180;59064;45.294;11.816;2023-08-20T12:41:18;101722.40;;;38.70
68939;BMP180;59064;45.294;11.816;2023-08-20T12:43:44;101721.20;;;38.98
68939;BMP180;59064;45.294;11.816;2023-08-20T12:46:10;101714.80;;;39.30
68939;BMP180;59064;45.294;11.816;2023-08-20T12:48:37;101713.40;;;39.20
68939;BMP180;59064;45.294;11.816;2023-08-20T12:51:03;101714.40;;;38.80
68939;BMP180;59064;45.294;11.816;2023-08-20T12:53:29;101711.40;;;38.90
68939;BMP180;59064;45.294;11.816;2023-08-20T12:55:54;101710.80;;;38.90
68939;BMP180;59064;45.294;11.816;2023-08-20T12:58:20;101709.80;;;38.90
68939;BMP180;59064;45.294;11.816;2023-08-20T13:00:46;101709.20;;;39.08
68939;BMP180;59064;45.294;11.816;2023-08-20T13:03:12;101703.40;;;38.90
68939;BMP180;59064;45.294;11.816;2023-08-20T13:05:38;101707.00;;;39.10
68939;BMP180;59064;45.294;11.816;2023-08-20T13:08:07;101705.80;;;39.62
68939;BMP180;59064;45.294;11.816;2023-08-20T13:10:33;101705.20;;;40.12
68939;BMP180;59064;45.294;11.816;2023-08-20T13:13:02;101705.40;;;40.44
68939;BMP180;59064;45.294;11.816;2023-08-20T13:15:28;101701.20;;;40.70
68939;BMP180;59064;45.294;11.816;2023-08-20T13:17:55;101700.80;;;40.70
68939;BMP180;59064;45.294;11.816;2023-08-20T13:20:21;101696.40;;;40.50
68939;BMP180;59064;45.294;11.816;2023-08-20T13:22:49;101696.60;;;40.50
68939;BMP180;59064;45.294;11.816;2023-08-20T13:25:16;101698.00;;;40.60
68939;BMP180;59064;45.294;11.816;2023-08-20T13:27:41;101694.80;;;40.80
68939;BMP180;59064;45.294;11.816;2023-08-20T13:30:08;101692.40;;;41.10
68939;BMP180;59064;45.294;11.816;2023-08-20T13:32:37;101692.60;;;41.20
68939;BMP180;59064;45.294;11.816;2023-08-20T13:35:03;101691.20;;;41.10
68939;BMP180;59064;45.294;11.816;2023-08-20T13:37:30;101693.80;;;41.04
68939;BMP180;59064;45.294;11.816;2023-08-20T13:39:58;101694.40;;;40.90
68939;BMP180;59064;45.294;11.816;2023-08-20T13:42:23;101689.60;;;41.00
68939;BMP180;59064;45.294;11.816;2023-08-20T13:44:49;101690.20;;;40.70
68939;BMP180;59064;45.294;11.816;2023-08-20T13:47:15;101688.00;;;40.58
68939;BMP180;59064;45.294;11.816;2023-08-20T13:49:40;101690.40;;;40.60
68939;BMP180;59064;45.294;11.816;2023-08-20T13:52:06;101689.80;;;40.98
68939;BMP180;59064;45.294;11.816;2023-08-20T13:54:33;101687.20;;;41.54
68939;BMP180;59064;45.294;11.816;2023-08-20T13:56:58;101686.80;;;42.14